createdAt,value
2023-04-26T00:06:17.263Z,2.531772575250836
2023-04-26T00:13:52.374Z,2.548494983277592
2023-04-26T00:20:12.933Z,2.016722408026756
2023-04-26T00:32:00.647Z,2.234113712374582
2023-04-26T00:38:20.788Z,2.5183946488294313
2023-04-26T00:44:40.162Z,2.5551839464882944
2023-04-26T00:53:51.971Z,2.6254180602006687
2023-04-26T01:06:50.798Z,2.842809364548495
2023-04-26T01:13:11.579Z,2.6387959866220734
2023-04-26T01:19:31.409Z,2.9866220735785953
2023-04-26T01:25:51.752Z,3.0066889632107023
2023-04-26T01:32:11.223Z,3.277591973244147
2023-04-26T01:38:30.331Z,3.3812709030100336
2023-04-26T01:44:50.135Z,3.157190635451505
2023-04-26T01:51:11.033Z,2.79933110367893
2023-04-26T01:57:31.452Z,2.7558528428093645
2023-04-26T02:06:15.621Z,3.274247491638796
2023-04-26T02:12:37.114Z,3.020066889632107
2023-04-26T02:25:51.035Z,3.3779264214046822
2023-04-26T02:32:12.623Z,3.3277591973244145
2023-04-26T02:38:33.490Z,3.4849498327759196
2023-04-26T02:44:54.500Z,3.1638795986622075
2023-04-26T02:51:15.378Z,3.5652173913043477
2023-04-26T02:57:34.868Z,4.090301003344481
2023-04-26T03:03:54.679Z,3.4983277591973243
2023-04-26T03:10:16.310Z,3.5551839464882944
2023-04-26T03:17:49.837Z,3.4214046822742477
2023-04-26T03:29:32.521Z,3.3277591973244145
2023-04-26T03:37:03.889Z,3.869565217391304
2023-04-26T03:43:23.532Z,4.05685618729097
2023-04-26T03:53:08.760Z,4.224080267558528
2023-04-26T03:59:59.904Z,4.026755852842809
2023-04-26T04:06:19.521Z,3.8160535117056855
2023-04-26T04:12:40.155Z,4.157190635451505
2023-04-26T04:19:01.978Z,4.277591973244147
2023-04-26T04:25:23.353Z,4.3478260869565215
2023-04-26T04:31:45.053Z,4.321070234113712
2023-04-26T04:42:53.286Z,4.94314381270903
2023-04-26T04:49:15.994Z,4.575250836120401
2023-04-26T05:04:35.311Z,4.438127090301004
2023-04-26T05:10:57.587Z,4.304347826086956
2023-04-26T05:17:21.423Z,3.632107023411371
2023-04-26T05:24:09.164Z,3.551839464882943
2023-04-26T05:30:53.653Z,2.652173913043478
2023-04-26T05:37:16.082Z,2.5618729096989967
2023-04-26T05:43:40.630Z,2.3812709030100336
2023-04-26T05:50:05.930Z,1.7926421404682273
2023-04-26T05:56:30.920Z,2.277591973244147
2023-04-26T06:02:59.673Z,2.036789297658863
2023-04-26T06:14:29.282Z,2.367892976588629
2023-04-26T06:22:51.104Z,2.130434782608696
2023-04-26T06:29:13.649Z,1.9531772575250836
2023-04-26T06:35:35.055Z,2.4147157190635453
2023-04-26T06:42:00.727Z,2.0267558528428093
2023-04-26T06:48:22.263Z,2.5652173913043477
2023-04-26T06:54:56.672Z,2.5250836120401337
2023-04-26T07:03:39.475Z,2.431438127090301
2023-04-26T07:10:02.738Z,2.254180602006689
2023-04-26T07:16:28.101Z,2.74247491638796
2023-04-26T07:28:57.188Z,1.9431438127090301
2023-04-26T07:41:59.073Z,1.9030100334448161
2023-04-26T07:51:12.953Z,2.5351170568561874
2023-04-26T07:57:37.447Z,2.280936454849498
2023-04-26T08:04:01.914Z,2.0535117056856187
2023-04-26T08:10:25.861Z,2.301003344481605
2023-04-26T08:20:53.151Z,1.8862876254180603
2023-04-26T08:27:16.956Z,2.3846153846153846
2023-04-26T08:35:56.461Z,2.702341137123746
2023-04-26T08:46:31.386Z,2.1939799331103678
2023-04-26T08:55:03.534Z,2.749163879598662
2023-04-26T09:05:37.153Z,4.40133779264214
2023-04-26T09:12:02.272Z,2.882943143812709
2023-04-26T09:23:38.588Z,3.698996655518395
2023-04-26T09:34:10.987Z,2.210702341137124
2023-04-26T09:40:32.874Z,2.688963210702341
2023-04-26T09:46:55.308Z,2.511705685618729
2023-04-26T09:59:00.541Z,2.4381270903010033
2023-04-26T10:05:23.385Z,2.4648829431438126
2023-04-26T10:11:46.464Z,2.632107023411371
2023-04-26T10:18:08.707Z,2.6020066889632107
2023-04-26T10:29:45.794Z,2.9364548494983276
2023-04-26T10:36:05.984Z,3.0468227424749164
2023-04-26T10:45:49.143Z,3.8361204013377925
2023-04-26T10:54:24.815Z,1.6187290969899666
2023-04-26T11:01:14.670Z,2.6622073578595318
2023-04-26T11:07:35.903Z,4.431438127090301
2023-04-26T11:13:56.615Z,4.364548494983278
2023-04-26T11:20:17.707Z,1.8561872909698998
2023-04-26T11:26:38.003Z,1.7157190635451505
2023-04-26T11:32:59.166Z,2.411371237458194
2023-04-26T11:39:20.153Z,2.351170568561873
2023-04-26T11:45:40.823Z,1.7826086956521738
2023-04-26T11:52:02.121Z,1.3110367892976589
2023-04-26T11:59:01.474Z,1.2842809364548495
2023-04-26T12:14:49.787Z,0.5953177257525084
2023-04-26T12:21:10.571Z,0.6354515050167224
2023-04-26T12:27:30.946Z,0.7491638795986622
2023-04-26T12:33:51.691Z,0.3612040133779264
2023-04-26T12:40:12.405Z,0.2040133779264214
2023-04-26T12:46:32.993Z,0.5618729096989966
2023-04-26T12:54:27.228Z,2.6555183946488294
2023-04-26T13:00:48.089Z,5.1237458193979935
2023-04-26T13:07:09.412Z,1.8193979933110367
2023-04-26T13:13:42.395Z,1.411371237458194
2023-04-26T13:20:04.830Z,1.0535117056856187
2023-04-26T13:26:27.614Z,0.6120401337792643
2023-04-26T13:32:48.561Z,1.3177257525083612
2023-04-26T13:45:11.221Z,0.7926421404682275
2023-04-26T13:56:26.344Z,0.35451505016722407
2023-04-26T14:08:49.050Z,1.6622073578595318
2023-04-26T14:15:10.371Z,0.903010033444816
2023-04-26T14:21:31.030Z,0.28762541806020064
2023-04-26T14:29:34.123Z,0.4180602006688963
2023-04-26T14:35:55.039Z,0.8127090301003345
2023-04-26T14:42:15.998Z,2.6722408026755855
2023-04-26T14:48:37.331Z,2.4581939799331103
2023-04-26T14:54:58.157Z,2.290969899665552
2023-04-26T15:01:19.681Z,4.117056856187291
2023-04-26T15:07:41.218Z,2.0033444816053514
2023-04-26T15:14:02.748Z,3.016722408026756
2023-04-26T15:23:12.803Z,4.39799331103679
2023-04-26T15:33:16.472Z,5.3244147157190636
2023-04-26T15:39:37.245Z,3.8963210702341136
2023-04-26T15:46:00.367Z,2.2240802675585285
2023-04-26T15:52:21.310Z,3.4214046822742477
2023-04-26T15:58:42.499Z,2.789297658862876
2023-04-26T16:05:03.371Z,2.0836120401337794
2023-04-26T16:13:18.980Z,1.4247491638795986
2023-04-26T16:22:22.108Z,0.9331103678929766
2023-04-26T16:34:44.456Z,1.645484949832776
2023-04-26T16:41:04.704Z,1.2441471571906355
2023-04-26T16:52:44.215Z,0.8294314381270903
2023-04-26T16:59:05.990Z,1.1438127090301002
2023-04-26T17:05:26.793Z,0.8060200668896321
2023-04-26T17:20:05.649Z,3.0535117056856187
2023-04-26T17:26:28.343Z,12.729096989966555
2023-04-26T17:39:38.943Z,2.4247491638795986
2023-04-26T17:48:37.919Z,2.0903010033444818
2023-04-26T17:55:03.742Z,1.7725752508361203
2023-04-26T18:01:26.085Z,2.765886287625418
2023-04-26T18:08:35.520Z,3.137123745819398
2023-04-26T18:16:28.952Z,3.1638795986622075
2023-04-26T18:29:13.449Z,8.849498327759198
2023-04-26T18:35:39.238Z,4.8595317725752505
2023-04-26T18:46:47.890Z,4.555183946488294
2023-04-26T18:53:09.030Z,4.304347826086956
2023-04-26T18:59:31.547Z,4.846153846153846
2023-04-26T19:10:40.348Z,6.0200668896321075
2023-04-26T19:17:02.204Z,8.070234113712374
2023-04-26T19:23:27.708Z,7.130434782608695
2023-04-26T19:35:20.771Z,3.7157190635451505
2023-04-26T19:41:41.700Z,3.096989966555184
2023-04-26T19:48:05.071Z,3.5819397993311037
2023-04-26T20:07:28.062Z,2.5351170568561874
2023-04-26T20:14:09.578Z,2.1438127090301005
2023-04-26T20:20:41.712Z,2.822742474916388
2023-04-26T20:30:58.872Z,2.9565217391304346
2023-04-26T20:37:23.616Z,3.1137123745819397
2023-04-26T20:43:46.706Z,3.301003344481605
2023-04-26T20:52:01.052Z,4.2842809364548495
2023-04-26T20:58:36.369Z,4.6521739130434785
2023-04-26T21:04:57.394Z,4.444816053511706
2023-04-26T21:11:17.433Z,5.498327759197324
2023-04-26T21:18:41.080Z,4.762541806020067
2023-04-26T21:36:10.248Z,5.250836120401337
2023-04-26T21:43:39.564Z,6.234113712374582
2023-04-26T21:55:06.820Z,5.45819397993311
2023-04-26T22:01:30.998Z,5.287625418060201
2023-04-26T22:11:53.413Z,5.551839464882943
2023-04-26T22:18:15.726Z,5.585284280936455
2023-04-26T22:24:35.128Z,5.250836120401337
2023-04-26T22:30:55.276Z,5.357859531772576
2023-04-26T22:37:21.252Z,5.321070234113712
2023-04-26T22:43:41.770Z,5.468227424749164
2023-04-26T22:50:01.348Z,5.471571906354515
2023-04-26T22:56:22.372Z,5.391304347826087
2023-04-26T23:02:43.532Z,5.862876254180602
2023-04-26T23:09:18.823Z,5.705685618729097
2023-04-26T23:15:38.295Z,5.916387959866221
2023-04-26T23:21:58.022Z,5.505016722408027
2023-04-26T23:28:19.150Z,5.508361204013378
2023-04-26T23:34:39.285Z,5.782608695652174
2023-04-26T23:41:01.895Z,5.705685618729097
2023-04-26T23:47:23.158Z,5.60200668896321
2023-04-26T23:59:01.947Z,5.501672240802676
